sensor_id;sensor_type;location;lat;lon;timestamp;temperature;humidity
31979;DHT22;18502;43.574;1.276;2023-06-26T15:03:03;31.20;55.80
31979;DHT22;18502;43.574;1.276;2023-06-26T15:05:29;31.80;55.80
31979;DHT22;18502;43.574;1.276;2023-06-26T15:07:55;31.10;56.20
31979;DHT22;18502;43.574;1.276;2023-06-26T15:10:20;31.70;53.00
31979;DHT22;18502;43.574;1.276;2023-06-26T15:12:47;32.40;53.70
31979;DHT22;18502;43.574;1.276;2023-06-26T15:15:12;32.90;50.70
31979;DHT22;18502;43.574;1.276;2023-06-26T15:17:38;31.70;51.90
31979;DHT22;18502;43.574;1.276;2023-06-26T15:20:05;31.70;53.80
31979;DHT22;18502;43.574;1.276;2023-06-26T15:22:31;30.50;53.80
31979;DHT22;18502;43.574;1.276;2023-06-26T15:24:56;29.20;56.30
31979;DHT22;18502;43.574;1.276;2023-06-26T15:27:22;29.60;57.70
31979;DHT22;18502;43.574;1.276;2023-06-26T15:29:48;29.60;57.40
31979;DHT22;18502;43.574;1.276;2023-06-26T15:32:13;29.70;57.20
31979;DHT22;18502;43.574;1.276;2023-06-26T15:34:41;30.10;58.80
31979;DHT22;18502;43.574;1.276;2023-06-26T15:37:07;30.60;56.70
31979;DHT22;18502;43.574;1.276;2023-06-26T15:39:32;30.50;55.80
31979;DHT22;18502;43.574;1.276;2023-06-26T15:41:58;30.40;55.20
31979;DHT22;18502;43.574;1.276;2023-06-26T15:44:24;29.60;56.80
31979;DHT22;18502;43.574;1.276;2023-06-26T15:46:50;28.80;58.80
31979;DHT22;18502;43.574;1.276;2023-06-26T15:49:16;28.00;61.50
31979;DHT22;18502;43.574;1.276;2023-06-26T15:51:42;28.00;63.30
31979;DHT22;18502;43.574;1.276;2023-06-26T15:54:10;27.90;62.80
31979;DHT22;18502;43.574;1.276;2023-06-26T15:56:36;28.00;64.10
31979;DHT22;18502;43.574;1.276;2023-06-26T15:59:02;27.90;64.20
31979;DHT22;18502;43.574;1.276;2023-06-26T16:01:27;27.90;64.80
31979;DHT22;18502;43.574;1.276;2023-06-26T16:03:53;28.00;64.20
31979;DHT22;18502;43.574;1.276;2023-06-26T16:06:18;27.40;64.70
31979;DHT22;18502;43.574;1.276;2023-06-26T16:08:45;27.30;67.80
31979;DHT22;18502;43.574;1.276;2023-06-26T16:11:13;27.40;65.70
31979;DHT22;18502;43.574;1.276;2023-06-26T16:13:38;27.10;66.70
31979;DHT22;18502;43.574;1.276;2023-06-26T16:16:04;27.20;65.90
31979;DHT22;18502;43.574;1.276;2023-06-26T16:18:30;27.50;67.80
31979;DHT22;18502;43.574;1.276;2023-06-26T16:20:56;27.70;64.70
31979;DHT22;18502;43.574;1.276;2023-06-26T16:23:22;27.50;64.10
31979;DHT22;18502;43.574;1.276;2023-06-26T16:25:48;27.30;66.10
31979;DHT22;18502;43.574;1.276;2023-06-26T16:28:14;27.20;66.70
31979;DHT22;18502;43.574;1.276;2023-06-26T16:30:39;27.10;68.80
31979;DHT22;18502;43.574;1.276;2023-06-26T16:33:06;28.50;65.40
31979;DHT22;18502;43.574;1.276;2023-06-26T16:35:32;28.50;63.30
31979;DHT22;18502;43.574;1.276;2023-06-26T16:38:00;28.90;64.40
31979;DHT22;18502;43.574;1.276;2023-06-26T16:40:28;28.70;62.20
31979;DHT22;18502;43.574;1.276;2023-06-26T16:42:54;28.20;62.90
31979;DHT22;18502;43.574;1.276;2023-06-26T16:45:19;27.80;66.30
31979;DHT22;18502;43.574;1.276;2023-06-26T16:47:45;27.20;64.70
31979;DHT22;18502;43.574;1.276;2023-06-26T16:50:10;27.30;66.20
31979;DHT22;18502;43.574;1.276;2023-06-26T16:52:36;27.50;66.80
31979;DHT22;18502;43.574;1.276;2023-06-26T16:55:03;27.70;65.10
31979;DHT22;18502;43.574;1.276;2023-06-26T16:57:29;28.50;64.10
31979;DHT22;18502;43.574;1.276;2023-06-26T16:59:54;31.00;61.10
31979;DHT22;18502;43.574;1.276;2023-06-26T17:02:21;33.00;57.20
31979;DHT22;18502;43.574;1.276;2023-06-26T17:04:46;33.60;53.80
31979;DHT22;18502;43.574;1.276;2023-06-26T17:07:12;33.20;54.40
31979;DHT22;18502;43.574;1.276;2023-06-26T17:09:37;34.70;51.60
31979;DHT22;18502;43.574;1.276;2023-06-26T17:12:03;34.30;53.10
31979;DHT22;18502;43.574;1.276;2023-06-26T17:14:29;33.60;52.00
31979;DHT22;18502;43.574;1.276;2023-06-26T17:16:55;34.20;52.30
31979;DHT22;18502;43.574;1.276;2023-06-26T17:19:22;35.60;50.00
31979;DHT22;18502;43.574;1.276;2023-06-26T17:21:48;35.60;50.90
31979;DHT22;18502;43.574;1.276;2023-06-26T17:24:14;34.30;51.90
31979;DHT22;18502;43.574;1.276;2023-06-26T17:26:42;33.80;51.80
31979;DHT22;18502;43.574;1.276;2023-06-26T17:29:09;32.80;52.30
31979;DHT22;18502;43.574;1.276;2023-06-26T17:31:34;34.20;51.00
31979;DHT22;18502;43.574;1.276;2023-06-26T17:34:00;35.00;50.10
31979;DHT22;18502;43.574;1.276;2023-06-26T17:36:26;34.00;51.20
31979;DHT22;18502;43.574;1.276;2023-06-26T17:38:51;33.80;50.50
31979;DHT22;18502;43.574;1.276;2023-06-26T17:41:22;33.90;50.90
31979;DHT22;18502;43.574;1.276;2023-06-26T17:43:48;33.10;51.40
31979;DHT22;18502;43.574;1.276;2023-06-26T17:46:17;33.60;51.80
31979;DHT22;18502;43.574;1.276;2023-06-26T17:48:46;32.90;52.20
31979;DHT22;18502;43.574;1.276;2023-06-26T17:51:12;30.20;57.60
31979;DHT22;18502;43.574;1.276;2023-06-26T17:53:38;28.80;59.70
31979;DHT22;18502;43.574;1.276;2023-06-26T17:56:04;27.30;62.80
31979;DHT22;18502;43.574;1.276;2023-06-26T17:58:29;26.70;65.00
31979;DHT22;18502;43.574;1.276;2023-06-26T18:00:55;26.60;66.30
31979;DHT22;18502;43.574;1.276;2023-06-26T18:03:21;26.20;67.20
31979;DHT22;18502;43.574;1.276;2023-06-26T18:05:46;25.90;70.00
31979;DHT22;18502;43.574;1.276;2023-06-26T18:08:12;25.80;71.40
31979;DHT22;18502;43.574;1.276;2023-06-26T18:10:38;26.10;70.90
31979;DHT22;18502;43.574;1.276;2023-06-26T18:13:03;27.10;68.20
31979;DHT22;18502;43.574;1.276;2023-06-26T18:15:29;28.00;65.70
31979;DHT22;18502;43.574;1.276;2023-06-26T18:17:55;28.10;64.10
31979;DHT22;18502;43.574;1.276;2023-06-26T18:20:21;27.30;65.30
31979;DHT22;18502;43.574;1.276;2023-06-26T18:22:46;26.90;68.40
31979;DHT22;18502;43.574;1.276;2023-06-26T18:25:13;25.90;69.40
31979;DHT22;18502;43.574;1.276;2023-06-26T18:27:40;25.60;73.20
31979;DHT22;18502;43.574;1.276;2023-06-26T18:30:06;25.50;72.30
31979;DHT22;18502;43.574;1.276;2023-06-26T18:32:32;24.90;74.60
31979;DHT22;18502;43.574;1.276;2023-06-26T18:34:58;24.80;75.80
31979;DHT22;18502;43.574;1.276;2023-06-26T18:37:23;24.80;75.30
31979;DHT22;18502;43.574;1.276;2023-06-26T18:39:49;24.70;76.40
31979;DHT22;18502;43.574;1.276;2023-06-26T18:42:15;24.70;77.90
31979;DHT22;18502;43.574;1.276;2023-06-26T18:44:40;24.60;78.50
31979;DHT22;18502;43.574;1.276;2023-06-26T18:47:06;24.50;80.00
31979;DHT22;18502;43.574;1.276;2023-06-26T18:49:32;24.60;80.50
31979;DHT22;18502;43.574;1.276;2023-06-26T18:52:01;24.50;80.00
31979;DHT22;18502;43.574;1.276;2023-06-26T18:54:28;24.40;80.00
31979;DHT22;18502;43.574;1.276;2023-06-26T18:56:54;24.10;80.70
31979;DHT22;18502;43.574;1.276;2023-06-26T18:59:19;24.10;81.20
31979;DHT22;18502;43.574;1.276;2023-06-26T19:01:47;23.90;81.90
31979;DHT22;18502;43.574;1.276;2023-06-26T19:04:12;23.80;82.90
31979;DHT22;18502;43.574;1.276;2023-06-26T19:06:38;23.70;83.70
31979;DHT22;18502;43.574;1.276;2023-06-26T19:09:04;23.70;83.70
31979;DHT22;18502;43.574;1.276;2023-06-26T19:11:29;23.60;85.00
31979;DHT22;18502;43.574;1.276;2023-06-26T19:13:55;23.50;85.60
31979;DHT22;18502;43.574;1.276;2023-06-26T19:16:21;23.50;87.00
31979;DHT22;18502;43.574;1.276;2023-06-26T19:18:46;23.40;87.40
31979;DHT22;18502;43.574;1.276;2023-06-26T19:21:12;23.20;88.80
31979;DHT22;18502;43.574;1.276;2023-06-26T19:23:38;23.10;88.50
31979;DHT22;18502;43.574;1.276;2023-06-26T19:26:03;23.10;89.30
31979;DHT22;18502;43.574;1.276;2023-06-26T19:28:29;23.10;89.60
31979;DHT22;18502;43.574;1.276;2023-06-26T19:30:55;23.10;89.70
31979;DHT22;18502;43.574;1.276;2023-06-26T19:33:20;23.10;89.80
31979;DHT22;18502;43.574;1.276;2023-06-26T19:35:46;23.00;90.30
31979;DHT22;18502;43.574;1.276;2023-06-26T19:38:11;22.90;90.40
31979;DHT22;18502;43.574;1.276;2023-06-26T19:40:37;22.80;90.90
31979;DHT22;18502;43.574;1.276;2023-06-26T19:43:04;22.70;91.00
31979;DHT22;18502;43.574;1.276;2023-06-26T19:45:30;22.70;91.50
31979;DHT22;18502;43.574;1.276;2023-06-26T19:47:56;22.60;91.50
31979;DHT22;18502;43.574;1.276;2023-06-26T19:50:21;22.60;91.80
31979;DHT22;18502;43.574;1.276;2023-06-26T19:52:48;22.50;91.90
31979;DHT22;18502;43.574;1.276;2023-06-26T19:55:14;22.40;92.30
31979;DHT22;18502;43.574;1.276;2023-06-26T19:57:42;22.40;92.60
31979;DHT22;18502;43.574;1.276;2023-06-26T20:00:08;22.20;93.20
31979;DHT22;18502;43.574;1.276;2023-06-26T20:02:36;22.10;93.80
31979;DHT22;18502;43.574;1.276;2023-06-26T20:05:02;22.00;94.30
31979;DHT22;18502;43.574;1.276;2023-06-26T20:07:28;21.90;94.50
31979;DHT22;18502;43.574;1.276;2023-06-26T20:09:54;21.90;95.00
31979;DHT22;18502;43.574;1.276;2023-06-26T20:12:20;22.00;95.30
31979;DHT22;18502;43.574;1.276;2023-06-26T20:14:45;21.90;94.80
31979;DHT22;18502;43.574;1.276;2023-06-26T20:17:11;21.80;95.20
31979;DHT22;18502;43.574;1.276;2023-06-26T20:19:37;21.70;95.60
31979;DHT22;18502;43.574;1.276;2023-06-26T20:22:03;21.60;96.00
31979;DHT22;18502;43.574;1.276;2023-06-26T20:24:28;21.50;96.10
31979;DHT22;18502;43.574;1.276;2023-06-26T20:26:59;21.40;96.60
31979;DHT22;18502;43.574;1.276;2023-06-26T20:29:24;21.40;96.90
31979;DHT22;18502;43.574;1.276;2023-06-26T20:31:50;21.40;96.90
31979;DHT22;18502;43.574;1.276;2023-06-26T20:34:16;21.40;97.20
31979;DHT22;18502;43.574;1.276;2023-06-26T20:36:41;21.30;97.50
31979;DHT22;18502;43.574;1.276;2023-06-26T20:39:07;21.20;97.80
31979;DHT22;18502;43.574;1.276;2023-06-26T20:41:33;21.20;98.10
31979;DHT22;18502;43.574;1.276;2023-06-26T20:43:59;21.20;98.40
31979;DHT22;18502;43.574;1.276;2023-06-26T20:46:25;21.10;98.50
31979;DHT22;18502;43.574;1.276;2023-06-26T20:48:59;21.00;98.80
31979;DHT22;18502;43.574;1.276;2023-06-26T20:51:26;20.90;99.10
31979;DHT22;18502;43.574;1.276;2023-06-26T20:53:53;20.90;99.30
31979;DHT22;18502;43.574;1.276;2023-06-26T20:56:19;20.80;99.70
31979;DHT22;18502;43.574;1.276;2023-06-26T20:58:45;20.80;99.90
31979;DHT22;18502;43.574;1.276;2023-06-26T21:01:10;20.80;99.90
31979;DHT22;18502;43.574;1.276;2023-06-26T21:03:36;20.80;99.90
31979;DHT22;18502;43.574;1.276;2023-06-26T21:06:02;20.80;99.90
31979;DHT22;18502;43.574;1.276;2023-06-26T21:08:27;20.70;99.90
31979;DHT22;18502;43.574;1.276;2023-06-26T21:10:53;20.60;99.90
31979;DHT22;18502;43.574;1.276;2023-06-26T21:13:18;20.60;99.90
31979;DHT22;18502;43.574;1.276;2023-06-26T21:15:44;20.60;99.90
31979;DHT22;18502;43.574;1.276;2023-06-26T21:18:10;20.60;99.90
31979;DHT22;18502;43.574;1.276;2023-06-26T21:20:38;20.50;99.90
31979;DHT22;18502;43.574;1.276;2023-06-26T21:23:04;20.40;99.90
31979;DHT22;18502;43.574;1.276;2023-06-26T21:25:29;20.50;99.90
31979;DHT22;18502;43.574;1.276;2023-06-26T21:27:55;20.50;99.90
31979;DHT22;18502;43.574;1.276;2023-06-26T21:30:20;20.60;99.90
31979;DHT22;18502;43.574;1.276;2023-06-26T21:32:46;20.70;99.90
31979;DHT22;18502;43.574;1.276;2023-06-26T21:35:12;20.90;99.90
31979;DHT22;18502;43.574;1.276;2023-06-26T21:37:39;20.90;99.90
31979;DHT22;18502;43.574;1.276;2023-06-26T21:40:05;21.00;99.90
31979;DHT22;18502;43.574;1.276;2023-06-26T21:42:31;21.10;99.90
31979;DHT22;18502;43.574;1.276;2023-06-26T21:44:57;21.20;99.90
31979;DHT22;18502;43.574;1.276;2023-06-26T21:47:22;21.30;99.90
31979;DHT22;18502;43.574;1.276;2023-06-26T21:49:48;21.30;99.90
31979;DHT22;18502;43.574;1.276;2023-06-26T21:52:14;21.20;99.90
31979;DHT22;18502;43.574;1.276;2023-06-26T21:54:39;21.30;99.90
31979;DHT22;18502;43.574;1.276;2023-06-26T21:57:05;21.40;99.90
31979;DHT22;18502;43.574;1.276;2023-06-26T22:00:08;21.30;99.90
31979;DHT22;18502;43.574;1.276;2023-06-26T22:02:38;21.20;99.90
31979;DHT22;18502;43.574;1.276;2023-06-26T22:05:08;21.30;99.90
31979;DHT22;18502;43.574;1.276;2023-06-26T22:07:36;21.30;99.90
31979;DHT22;18502;43.574;1.276;2023-06-26T22:10:02;21.30;99.90
31979;DHT22;18502;43.574;1.276;2023-06-26T22:12:30;21.30;99.90
31979;DHT22;18502;43.574;1.276;2023-06-26T22:14:56;21.20;99.90
31979;DHT22;18502;43.574;1.276;2023-06-26T22:17:21;21.20;99.90
31979;DHT22;18502;43.574;1.276;2023-06-26T22:19:47;21.20;99.90
31979;DHT22;18502;43.574;1.276;2023-06-26T22:22:13;21.20;99.90
31979;DHT22;18502;43.574;1.276;2023-06-26T22:24:39;21.10;99.90
31979;DHT22;18502;43.574;1.276;2023-06-26T22:27:04;21.10;99.90
31979;DHT22;18502;43.574;1.276;2023-06-26T22:29:30;21.00;99.90
31979;DHT22;18502;43.574;1.276;2023-06-26T22:31:56;21.00;99.90
31979;DHT22;18502;43.574;1.276;2023-06-26T22:34:22;21.00;99.90
31979;DHT22;18502;43.574;1.276;2023-06-26T22:36:47;20.90;99.90
31979;DHT22;18502;43.574;1.276;2023-06-26T22:39:13;20.90;99.90
31979;DHT22;18502;43.574;1.276;2023-06-26T22:41:41;20.70;99.90
31979;DHT22;18502;43.574;1.276;2023-06-26T22:44:07;20.70;99.90
31979;DHT22;18502;43.574;1.276;2023-06-26T22:46:32;20.70;99.90
31979;DHT22;18502;43.574;1.276;2023-06-26T22:48:58;20.70;99.90
31979;DHT22;18502;43.574;1.276;2023-06-26T22:51:25;20.70;99.90
31979;DHT22;18502;43.574;1.276;2023-06-26T22:53:52;20.70;99.90
31979;DHT22;18502;43.574;1.276;2023-06-26T22:56:17;20.80;99.90
31979;DHT22;18502;43.574;1.276;2023-06-26T22:58:43;20.90;99.90
31979;DHT22;18502;43.574;1.276;2023-06-26T23:01:09;20.90;99.90
31979;DHT22;18502;43.574;1.276;2023-06-26T23:03:42;20.90;99.90
31979;DHT22;18502;43.574;1.276;2023-06-26T23:06:08;20.80;99.90
31979;DHT22;18502;43.574;1.276;2023-06-26T23:08:35;20.70;99.90
31979;DHT22;18502;43.574;1.276;2023-06-26T23:11:02;20.70;99.90
31979;DHT22;18502;43.574;1.276;2023-06-26T23:13:28;20.60;99.90
31979;DHT22;18502;43.574;1.276;2023-06-26T23:15:53;20.50;99.90
31979;DHT22;18502;43.574;1.276;2023-06-26T23:18:19;20.50;99.90
31979;DHT22;18502;43.574;1.276;2023-06-26T23:20:45;20.50;99.90
31979;DHT22;18502;43.574;1.276;2023-06-26T23:23:12;20.50;99.90
31979;DHT22;18502;43.574;1.276;2023-06-26T23:25:41;20.40;99.90
31979;DHT22;18502;43.574;1.276;2023-06-26T23:28:07;20.30;99.90
31979;DHT22;18502;43.574;1.276;2023-06-26T23:30:33;20.30;99.90
31979;DHT22;18502;43.574;1.276;2023-06-26T23:33:00;20.30;99.90
31979;DHT22;18502;43.574;1.276;2023-06-26T23:35:31;20.20;99.90
31979;DHT22;18502;43.574;1.276;2023-06-26T23:37:56;20.20;99.90
31979;DHT22;18502;43.574;1.276;2023-06-26T23:40:26;20.20;99.90
31979;DHT22;18502;43.574;1.276;2023-06-26T23:42:52;20.20;99.90
31979;DHT22;18502;43.574;1.276;2023-06-26T23:45:18;20.20;99.90
31979;DHT22;18502;43.574;1.276;2023-06-26T23:47:47;20.30;99.90
31979;DHT22;18502;43.574;1.276;2023-06-26T23:50:13;20.30;99.90
31979;DHT22;18502;43.574;1.276;2023-06-26T23:52:38;20.40;99.90
31979;DHT22;18502;43.574;1.276;2023-06-26T23:55:06;20.40;99.90
31979;DHT22;18502;43.574;1.276;2023-06-26T23:57:32;20.50;99.90
31979;DHT22;18502;43.574;1.276;2023-06-26T23:59:57;20.50;99.90
